Time;durP1;ratioP1;P1;durP2;ratioP2;P2;SDS_P1;SDS_P2;PMS_P1;PMS_P2;Temp;Humidity;BMP_temperature;BMP_pressure;BME280_temperature;BME280_humidity;BME280_pressure;Samples;Min_cycle;Max_cycle;Signal;HPM_P1;HPM_P2
2022/07/20 00:00:47;;;;;;;34.13;8.02;;;;;;;21.72;100.00;98073.69;5057263;28;20552;-61
2022/07/20 00:03:13;;;;;;;32.50;7.50;;;;;;;21.62;100.00;98072.81;5058336;28;20067;-61
2022/07/20 00:05:39;;;;;;;27.40;7.10;;;;;;;21.64;100.00;98076.19;5058075;28;20040;-59
2022/07/20 00:08:05;;;;;;;27.63;6.43;;;;;;;21.81;100.00;98076.56;5058405;28;20168;-61
2022/07/20 00:13:16;;;;;;;31.00;7.30;;;;;;;21.49;100.00;98078.34;5059004;28;20075;-60
2022/07/20 00:15:42;;;;;;;32.03;6.85;;;;;;;21.44;100.00;98075.19;5057773;28;20163;-61
2022/07/20 00:18:07;;;;;;;30.52;7.32;;;;;;;21.67;100.00;98072.41;5057572;28;20496;-60
2022/07/20 00:20:34;;;;;;;29.88;7.30;;;;;;;21.33;100.00;98073.44;5057410;28;20501;-60
2022/07/20 00:22:59;;;;;;;33.10;7.47;;;;;;;21.53;100.00;98066.47;5058891;28;20031;-60
2022/07/20 00:25:25;;;;;;;27.00;6.40;;;;;;;21.73;100.00;98063.94;5058126;28;20064;-60
2022/07/20 00:27:51;;;;;;;28.02;6.38;;;;;;;21.54;100.00;98072.63;5058251;28;20025;-60
2022/07/20 00:30:17;;;;;;;33.58;7.18;;;;;;;21.37;100.00;98071.38;5056550;28;20035;-60
2022/07/20 00:32:42;;;;;;;31.85;7.15;;;;;;;21.46;100.00;98077.75;5058037;28;20032;-59
2022/07/20 00:35:09;;;;;;;31.52;7.22;;;;;;;21.51;100.00;98070.25;5057355;28;20027;-59
2022/07/20 00:37:35;;;;;;;31.38;7.07;;;;;;;21.40;100.00;98067.63;5058488;28;20028;-60
2022/07/20 00:40:01;;;;;;;41.92;8.55;;;;;;;20.87;100.00;98071.97;5057984;28;20034;-61
2022/07/20 00:42:27;;;;;;;38.95;7.63;;;;;;;21.19;100.00;98071.09;5056995;28;20066;-59
2022/07/20 00:44:52;;;;;;;31.02;7.60;;;;;;;21.14;100.00;98068.00;5057866;28;20905;-62
2022/07/20 00:47:17;;;;;;;46.35;8.20;;;;;;;20.96;100.00;98075.66;5057236;28;20098;-60
2022/07/20 00:49:43;;;;;;;29.27;6.82;;;;;;;21.29;100.00;98066.72;5058002;28;20461;-59
2022/07/20 00:52:08;;;;;;;32.83;7.45;;;;;;;20.99;100.00;98070.13;5057249;28;20523;-59
2022/07/20 00:54:34;;;;;;;38.17;7.65;;;;;;;20.87;100.00;98071.97;5061451;28;20545;-60
2022/07/20 00:57:00;;;;;;;33.97;7.40;;;;;;;20.94;100.00;98075.78;5061570;28;20055;-60
2022/07/20 00:59:25;;;;;;;33.70;7.00;;;;;;;21.09;100.00;98070.19;5061144;28;20644;-59
2022/07/20 01:01:51;;;;;;;28.15;6.82;;;;;;;21.04;100.00;98080.34;5059793;28;20036;-61
2022/07/20 01:04:17;;;;;;;25.10;6.45;;;;;;;21.21;100.00;98069.19;5061463;28;20669;-60
2022/07/20 01:06:43;;;;;;;35.05;7.28;;;;;;;20.98;100.00;98063.97;5060944;28;20035;-59
2022/07/20 01:09:08;;;;;;;33.85;7.15;;;;;;;20.97;100.00;98070.25;5061199;28;20094;-60
2022/07/20 01:11:35;;;;;;;35.83;7.38;;;;;;;20.92;100.00;98075.06;5060194;28;20425;-59
2022/07/20 01:14:05;;;;;;;28.00;7.22;;;;;;;20.66;100.00;98069.28;5061295;28;20023;-60
2022/07/20 01:16:31;;;;;;;30.17;6.53;;;;;;;20.78;100.00;98056.81;5061065;28;20036;-61
2022/07/20 01:18:56;;;;;;;30.08;7.35;;;;;;;20.55;100.00;98067.44;5061790;28;20024;-61
2022/07/20 01:21:22;;;;;;;34.53;7.82;;;;;;;20.43;100.00;98057.84;5060304;28;20090;-60
2022/07/20 01:23:47;;;;;;;34.95;7.68;;;;;;;20.72;100.00;98052.84;5061640;28;20056;-60
2022/07/20 01:26:16;;;;;;;30.35;6.88;;;;;;;20.67;100.00;98049.72;5060324;28;20043;-60
2022/07/20 01:28:41;;;;;;;25.13;6.40;;;;;;;20.85;100.00;98050.03;5060827;28;20073;-60
2022/07/20 01:31:07;;;;;;;26.73;6.82;;;;;;;20.77;100.00;98049.84;5061405;28;20048;-60
2022/07/20 01:33:32;;;;;;;29.98;6.75;;;;;;;20.93;100.00;98054.69;5061161;28;20070;-60
2022/07/20 01:35:58;;;;;;;24.77;6.25;;;;;;;20.89;100.00;98054.09;5060915;28;20184;-59
2022/07/20 01:38:23;;;;;;;27.48;6.85;;;;;;;20.83;100.00;98051.97;5060625;28;20054;-60
2022/07/20 01:40:49;;;;;;;42.05;8.05;;;;;;;20.83;100.00;98053.78;5059578;28;20044;-61
2022/07/20 01:43:14;;;;;;;36.13;7.20;;;;;;;20.78;100.00;98054.16;5060648;28;20069;-59
2022/07/20 01:45:39;;;;;;;34.80;7.45;;;;;;;20.65;100.00;98056.13;5060508;28;20044;-60
2022/07/20 01:48:05;;;;;;;59.88;9.45;;;;;;;20.72;100.00;98049.38;5059221;28;20029;-60
2022/07/20 01:50:31;;;;;;;32.72;7.32;;;;;;;20.69;100.00;98046.97;5057893;28;20067;-59
2022/07/20 01:52:56;;;;;;;38.20;7.82;;;;;;;20.67;100.00;98043.59;5058106;28;20028;-60
2022/07/20 01:55:22;;;;;;;34.03;7.05;;;;;;;20.38;100.00;98042.31;5059083;28;20091;-60
2022/07/20 01:57:47;;;;;;;28.92;6.75;;;;;;;20.46;100.00;98041.69;5061035;28;20044;-59
2022/07/20 02:00:13;;;;;;;37.80;7.50;;;;;;;20.60;100.00;98044.13;5059142;28;20500;-60
2022/07/20 02:02:40;;;;;;;29.98;6.60;;;;;;;20.49;100.00;98046.72;5060871;28;20518;-60
2022/07/20 02:05:08;;;;;;;32.70;7.10;;;;;;;20.57;100.00;98049.63;5058777;28;20040;-60
2022/07/20 02:07:34;;;;;;;30.48;6.80;;;;;;;20.46;100.00;98046.13;5060226;28;20054;-59
2022/07/20 02:09:59;;;;;;;39.20;7.93;;;;;;;20.47;100.00;98047.84;5059603;28;20799;-59
2022/07/20 02:12:25;;;;;;;33.72;7.10;;;;;;;20.40;100.00;98037.75;5059352;28;20033;-60
2022/07/20 02:14:50;;;;;;;25.92;6.30;;;;;;;20.27;100.00;98041.50;5060813;28;20406;-60
2022/07/20 02:17:15;;;;;;;34.85;7.22;;;;;;;20.37;100.00;98040.63;5059241;28;20157;-60
2022/07/20 02:19:41;;;;;;;31.63;7.03;;;;;;;20.31;100.00;98037.63;5060075;28;20039;-59
2022/07/20 02:22:06;;;;;;;27.75;6.82;;;;;;;20.09;100.00;98049.94;5058702;28;20532;-60
2022/07/20 02:24:31;;;;;;;36.90;6.85;;;;;;;20.17;100.00;98049.34;5059473;28;20033;-60
2022/07/20 02:26:57;;;;;;;30.40;6.93;;;;;;;20.12;100.00;98052.34;5061849;28;20043;-60
2022/07/20 02:29:22;;;;;;;33.38;6.82;;;;;;;20.09;100.00;98049.94;5059422;28;20700;-60
2022/07/20 02:31:47;;;;;;;37.00;7.65;;;;;;;20.06;100.00;98046.69;5058195;28;20037;-59
2022/07/20 02:34:13;;;;;;;30.10;7.22;;;;;;;20.02;100.00;98054.03;5059962;28;20089;-60
2022/07/20 02:36:39;;;;;;;32.85;7.75;;;;;;;19.74;100.00;98048.28;5059201;28;20041;-60
2022/07/20 02:39:05;;;;;;;30.92;7.05;;;;;;;19.82;100.00;98045.84;5059897;28;20486;-60
2022/07/20 02:41:32;;;;;;;26.95;6.75;;;;;;;19.75;100.00;98041.16;5058722;28;20225;-59
2022/07/20 02:43:58;;;;;;;24.40;6.68;;;;;;;19.76;100.00;98040.22;5059623;28;20024;-60
2022/07/20 02:46:23;;;;;;;30.52;6.75;;;;;;;19.75;100.00;98042.00;5058967;28;20043;-59
2022/07/20 02:48:49;;;;;;;37.85;7.03;;;;;;;19.69;100.00;98034.50;5058921;28;20035;-61
2022/07/20 02:51:14;;;;;;;31.38;7.03;;;;;;;19.68;100.00;98031.97;5058675;28;20035;-59
2022/07/20 02:53:39;;;;;;;30.17;7.00;;;;;;;19.64;100.00;98037.50;5059791;28;20111;-59
2022/07/20 02:56:05;;;;;;;29.80;7.10;;;;;;;19.62;100.00;98025.38;5059231;28;20133;-59
2022/07/20 02:58:30;;;;;;;29.15;7.05;;;;;;;19.59;100.00;98030.88;5058472;28;20111;-60
2022/07/20 03:00:57;;;;;;;34.50;7.20;;;;;;;19.67;100.00;98033.78;5056955;28;20286;-59
2022/07/20 03:03:22;;;;;;;32.97;7.50;;;;;;;19.64;100.00;98026.09;5058818;28;20036;-61
2022/07/20 03:05:48;;;;;;;33.35;7.32;;;;;;;19.56;100.00;98025.84;5059048;28;20067;-59
2022/07/20 03:08:13;;;;;;;33.70;6.97;;;;;;;19.77;100.00;98028.66;5059029;28;20636;-60
2022/07/20 03:10:38;;;;;;;28.65;6.50;;;;;;;19.79;100.00;98032.00;5057915;28;20059;-60
2022/07/20 03:13:04;;;;;;;39.15;7.45;;;;;;;19.63;100.00;98035.84;5060046;28;20024;-59
2022/07/20 03:15:29;;;;;;;33.22;6.78;;;;;;;19.63;100.00;98033.19;5060213;28;20034;-59
2022/07/20 03:17:55;;;;;;;27.80;7.00;;;;;;;19.43;100.00;98025.94;5058500;28;20020;-60
2022/07/20 03:20:23;;;;;;;38.72;7.82;;;;;;;19.42;100.00;98030.38;5056817;28;20028;-59
2022/07/20 03:22:48;;;;;;;36.58;7.43;;;;;;;19.47;100.00;98031.84;5059023;28;20099;-59
2022/07/20 03:25:14;;;;;;;37.40;7.13;;;;;;;19.42;100.00;98030.38;5058404;28;20127;-60
2022/07/20 03:27:39;;;;;;;26.80;6.63;;;;;;;19.48;100.00;98028.22;5056062;28;20027;-60
2022/07/20 03:30:06;;;;;;;46.03;8.45;;;;;;;19.43;100.00;98037.38;5057928;28;20809;-61
2022/07/20 03:32:31;;;;;;;33.28;7.47;;;;;;;19.37;100.00;98045.78;5059017;28;20071;-61
2022/07/20 03:34:57;;;;;;;31.98;7.22;;;;;;;19.51;100.00;98041.22;5058512;28;20032;-60
2022/07/20 03:37:22;;;;;;;38.70;7.93;;;;;;;19.50;100.00;98048.34;5058064;28;20039;-61
2022/07/20 03:39:47;;;;;;;27.52;6.32;;;;;;;19.54;100.00;98048.94;5059613;28;20034;-60
2022/07/20 03:42:13;;;;;;;28.42;6.90;;;;;;;19.53;100.00;98052.53;5058369;28;20032;-60
2022/07/20 03:44:38;;;;;;;31.85;6.95;;;;;;;19.52;100.00;98050.84;5058687;28;20698;-60
2022/07/20 03:47:04;;;;;;;30.63;6.78;;;;;;;19.67;100.00;98048.81;5058035;28;20160;-59
2022/07/20 03:49:29;;;;;;;31.50;7.15;;;;;;;19.50;100.00;98053.63;5058155;28;20051;-60
2022/07/20 03:51:54;;;;;;;31.73;7.53;;;;;;;19.52;100.00;98051.69;5057166;28;20132;-60
2022/07/20 03:54:20;;;;;;;28.63;6.72;;;;;;;19.59;100.00;98046.75;5058649;28;20119;-61
2022/07/20 03:56:45;;;;;;;30.05;6.78;;;;;;;19.63;100.00;98043.78;5058312;28;20044;-60
2022/07/20 03:59:11;;;;;;;30.25;6.60;;;;;;;19.57;100.00;98054.81;5058437;28;20414;-59
2022/07/20 04:01:37;;;;;;;39.53;7.72;;;;;;;19.68;100.00;98046.03;5056912;28;20106;-59
2022/07/20 04:04:03;;;;;;;25.75;6.95;;;;;;;19.50;100.00;98055.41;5058361;28;20028;-59
2022/07/20 04:06:29;;;;;;;33.50;7.20;;;;;;;19.59;100.00;98062.63;5057735;28;20037;-63
2022/07/20 04:08:54;;;;;;;26.48;5.90;;;;;;;19.95;100.00;98058.13;5058349;28;20100;-60
2022/07/20 04:11:20;;;;;;;29.45;6.50;;;;;;;20.07;100.00;98057.19;5057900;28;20039;-60
2022/07/20 04:13:45;;;;;;;27.05;6.85;;;;;;;20.44;100.00;98051.59;5058401;28;20036;-60
2022/07/20 04:16:11;;;;;;;27.75;6.25;;;;;;;20.60;100.00;98049.41;5057993;28;20033;-60
2022/07/20 04:18:36;;;;;;;27.27;6.65;;;;;;;20.26;100.00;98053.91;5059782;28;20036;-59
2022/07/20 04:21:02;;;;;;;30.98;7.20;;;;;;;20.37;100.00;98053.03;5057002;28;20028;-61
2022/07/20 04:23:28;;;;;;;29.85;6.90;;;;;;;20.72;100.00;98052.03;5059049;28;20025;-60
2022/07/20 04:25:53;;;;;;;35.13;7.68;;;;;;;20.40;100.00;98048.34;5057590;28;20040;-60
2022/07/20 04:28:19;;;;;;;32.08;7.30;;;;;;;20.14;100.00;98061.00;5058564;28;20028;-60
2022/07/20 04:30:44;;;;;;;26.38;6.85;;;;;;;20.43;100.00;98068.44;5060857;28;20060;-59
2022/07/20 04:33:09;;;;;;;31.92;7.35;;;;;;;20.77;100.00;98068.41;5062655;28;20390;-59
2022/07/20 04:35:35;;;;;;;22.67;6.30;;;;;;;20.94;100.00;98057.22;5063078;28;20110;-59
2022/07/20 04:38:00;;;;;;;33.03;7.97;;;;;;;21.01;100.00;98062.00;5062162;28;20037;-61
2022/07/20 04:40:26;;;;;;;26.85;6.88;;;;;;;20.98;100.00;98058.66;5060566;28;20028;-61
2022/07/20 04:42:51;;;;;;;32.28;7.00;;;;;;;21.56;100.00;98068.03;5062235;28;20020;-60
2022/07/20 04:45:17;;;;;;;38.50;7.50;;;;;;;22.01;100.00;98070.34;5061625;28;20039;-60
2022/07/20 04:47:42;;;;;;;28.08;6.70;;;;;;;21.90;100.00;98073.09;5062328;28;20074;-60
2022/07/20 04:50:08;;;;;;;45.15;8.63;;;;;;;21.57;100.00;98075.03;5061667;28;20060;-58
2022/07/20 04:52:33;;;;;;;28.65;7.25;;;;;;;21.96;100.00;98069.91;5062394;28;20040;-60
2022/07/20 04:54:58;;;;;;;29.30;7.20;;;;;;;21.92;100.00;98068.50;5062034;28;20024;-61
2022/07/20 04:57:24;;;;;;;30.63;7.50;;;;;;;22.21;100.00;98068.63;5060596;28;20415;-61
2022/07/20 04:59:49;;;;;;;35.70;8.18;;;;;;;21.84;100.00;98066.50;5061561;28;20735;-60
2022/07/20 05:02:14;;;;;;;28.40;7.32;;;;;;;21.86;100.00;98063.72;5061427;28;20041;-60
2022/07/20 05:04:40;;;;;;;34.78;7.57;;;;;;;21.55;100.00;98066.34;5061798;28;20587;-60
2022/07/20 05:07:05;;;;;;;27.70;7.05;;;;;;;22.18;100.00;98068.88;5060419;28;20193;-59
2022/07/20 05:09:30;;;;;;;34.08;7.30;;;;;;;22.47;100.00;98065.50;5061332;28;20028;-60
2022/07/20 05:11:57;;;;;;;29.85;6.88;;;;;;;23.81;100.00;98059.47;5060561;28;20047;-61
2022/07/20 05:14:22;;;;;;;27.38;7.20;;;;;;;25.14;81.88;98058.13;5061549;28;20110;-60
2022/07/20 05:16:48;;;;;;;30.67;6.82;;;;;;;25.39;77.72;98067.22;5061487;28;20037;-60
2022/07/20 05:19:13;;;;;;;26.10;6.78;;;;;;;25.55;75.96;98060.34;5060616;28;20024;-59
2022/07/20 05:21:38;;;;;;;25.35;6.93;;;;;;;24.37;83.98;98063.03;5060131;28;20037;-60
2022/07/20 05:24:04;;;;;;;27.05;7.30;;;;;;;23.52;100.00;98078.16;5061604;28;20038;-60
2022/07/20 05:26:29;;;;;;;33.28;7.22;;;;;;;24.23;94.89;98074.19;5061797;28;20047;-60
2022/07/20 05:28:55;;;;;;;28.73;6.97;;;;;;;23.47;100.00;98080.41;5060848;28;20027;-60
2022/07/20 05:31:20;;;;;;;32.17;7.20;;;;;;;24.09;97.81;98077.31;5059850;28;20051;-62
2022/07/20 05:33:45;;;;;;;25.15;6.93;;;;;;;23.82;93.98;98077.16;5060690;28;20025;-60
2022/07/20 05:36:13;;;;;;;26.00;6.82;;;;;;;23.46;100.00;98078.72;5060279;28;20115;-60
2022/07/20 05:38:39;;;;;;;30.08;7.25;;;;;;;24.32;90.83;98075.13;5060794;28;20035;-61
2022/07/20 05:41:04;;;;;;;27.02;7.15;;;;;;;24.82;85.04;98067.53;5059826;28;20036;-60
2022/07/20 05:43:29;;;;;;;25.70;6.85;;;;;;;24.91;81.25;98070.28;5060670;28;20481;-60
2022/07/20 05:45:55;;;;;;;30.85;7.25;;;;;;;25.93;75.30;98063.59;5060372;28;20032;-62
2022/07/20 05:48:20;;;;;;;24.80;6.53;;;;;;;29.01;56.03;98062.94;5060901;28;20035;-60
2022/07/20 05:50:46;;;;;;;26.55;6.65;;;;;;;29.84;51.81;98060.41;5060113;28;20037;-60
2022/07/20 05:53:13;;;;;;;27.85;6.80;;;;;;;32.23;43.66;98057.63;5060625;28;20684;-60
2022/07/20 05:55:40;;;;;;;20.33;5.65;;;;;;;33.08;40.30;98055.41;5059680;28;20044;-60
2022/07/20 05:58:07;;;;;;;28.15;6.68;;;;;;;35.26;36.48;98064.25;5060648;28;20476;-60
2022/07/20 06:00:34;;;;;;;21.67;5.75;;;;;;;34.71;36.66;98071.03;5056099;28;20036;-62
2022/07/20 06:03:00;;;;;;;23.13;5.88;;;;;;;36.79;33.12;98064.56;5059349;28;20086;-61
2022/07/20 06:05:26;;;;;;;22.33;5.95;;;;;;;34.87;35.09;98068.84;5059873;28;20036;-60
2022/07/20 06:07:55;;;;;;;17.35;4.97;;;;;;;37.49;31.35;98065.81;5060212;28;20035;-61
2022/07/20 06:10:20;;;;;;;25.45;5.93;;;;;;;35.60;33.34;98062.91;5057739;28;20115;-60
2022/07/20 06:12:45;;;;;;;21.25;5.70;;;;;;;33.88;35.05;98065.44;5060279;28;20024;-61
2022/07/20 06:15:11;;;;;;;16.73;5.20;;;;;;;37.15;31.61;98073.66;5060829;28;20021;-60
2022/07/20 06:17:38;;;;;;;14.32;4.60;;;;;;;36.45;32.06;98067.69;5060263;28;20128;-62
2022/07/20 06:20:10;;;;;;;18.40;6.25;;;;;;;36.97;32.34;98063.69;5060271;28;20464;-61
2022/07/20 06:22:37;;;;;;;15.20;4.60;;;;;;;37.11;31.95;98067.00;5056468;28;20054;-62
2022/07/20 06:25:04;;;;;;;12.52;4.70;;;;;;;38.58;29.83;98059.00;5057282;28;20024;-60
2022/07/20 06:27:30;;;;;;;18.88;5.45;;;;;;;37.73;32.18;98064.78;5059371;28;20132;-63
2022/07/20 06:29:55;;;;;;;13.65;4.88;;;;;;;39.44;29.22;98062.44;5059937;28;20107;-59
2022/07/20 06:32:20;;;;;;;11.82;4.65;;;;;;;38.13;31.21;98061.34;5059069;28;20044;-63
2022/07/20 06:34:46;;;;;;;17.20;4.88;;;;;;;39.08;29.03;98059.16;5059818;28;20028;-61
2022/07/20 06:37:11;;;;;;;12.87;4.63;;;;;;;39.85;27.89;98065.00;5059685;28;20048;-61
2022/07/20 06:39:37;;;;;;;14.15;4.90;;;;;;;41.26;25.57;98053.59;5059717;28;20332;-61
2022/07/20 06:42:02;;;;;;;12.25;4.40;;;;;;;41.43;26.81;98054.25;5058878;28;20043;-61
2022/07/20 06:44:28;;;;;;;12.70;4.03;;;;;;;42.41;24.84;98057.56;5060023;28;20671;-62
2022/07/20 06:46:53;;;;;;;12.80;4.00;;;;;;;39.78;26.44;98050.69;5059616;28;20032;-61
2022/07/20 06:49:18;;;;;;;15.65;4.30;;;;;;;39.27;27.64;98046.09;5059366;28;20068;-61
2022/07/20 06:51:44;;;;;;;10.37;4.10;;;;;;;41.52;24.07;98047.19;5057691;28;20098;-63
2022/07/20 06:54:09;;;;;;;9.50;3.93;;;;;;;38.59;27.20;98038.88;5059854;28;20271;-61
2022/07/20 06:56:34;;;;;;;11.25;4.03;;;;;;;40.42;25.84;98040.13;5059466;28;20298;-63
2022/07/20 06:59:00;;;;;;;11.43;3.97;;;;;;;39.18;26.37;98031.22;5059606;28;20035;-61
2022/07/20 07:01:25;;;;;;;8.60;3.78;;;;;;;38.44;27.31;98034.72;5058879;28;20613;-61
2022/07/20 07:03:51;;;;;;;8.50;3.70;;;;;;;40.52;25.84;98035.88;5059939;28;20103;-61
2022/07/20 07:06:16;;;;;;;9.20;3.73;;;;;;;39.81;26.51;98028.38;5058604;28;20036;-62
2022/07/20 07:08:42;;;;;;;13.32;3.72;;;;;;;40.87;25.74;98018.22;5060117;28;20312;-61
2022/07/20 07:11:07;;;;;;;11.55;4.22;;;;;;;41.95;24.59;98028.88;5058605;28;20037;-61
2022/07/20 07:13:33;;;;;;;11.77;4.30;;;;;;;40.84;24.87;98023.13;5059155;28;20445;-61
2022/07/20 07:15:58;;;;;;;12.68;3.92;;;;;;;41.59;25.52;98025.09;5058618;28;20090;-61
2022/07/20 07:18:23;;;;;;;12.05;3.70;;;;;;;42.49;23.58;98026.94;5058759;28;20517;-60
2022/07/20 07:20:49;;;;;;;10.13;3.55;;;;;;;42.06;24.00;98034.44;5058392;28;20036;-62
2022/07/20 07:23:14;;;;;;;9.70;3.90;;;;;;;41.14;24.22;98032.66;5059234;28;20027;-62
2022/07/20 07:25:40;;;;;;;11.85;3.65;;;;;;;42.12;23.91;98033.38;5060323;28;20056;-61
2022/07/20 07:28:06;;;;;;;10.25;3.45;;;;;;;43.64;22.93;98030.34;5059721;28;20044;-61
2022/07/20 07:30:31;;;;;;;11.47;3.50;;;;;;;43.44;22.23;98025.72;5054490;28;20517;-61
2022/07/20 07:32:56;;;;;;;9.93;3.30;;;;;;;45.07;20.83;98020.63;5057082;28;20504;-61
2022/07/20 07:35:22;;;;;;;9.00;3.72;;;;;;;43.83;22.39;98023.16;5059703;28;20727;-61
2022/07/20 07:37:47;;;;;;;10.13;3.70;;;;;;;45.23;20.86;98015.81;5058399;28;20028;-64
2022/07/20 07:40:13;;;;;;;9.03;3.50;;;;;;;41.36;23.02;98018.09;5057001;28;20047;-60
2022/07/20 07:42:38;;;;;;;10.80;3.05;;;;;;;41.82;22.57;98010.19;5058788;28;20867;-62
2022/07/20 07:45:07;;;;;;;8.82;3.45;;;;;;;41.15;23.17;98001.47;5058459;28;20046;-60
2022/07/20 07:47:33;;;;;;;11.45;3.38;;;;;;;40.49;23.22;98007.13;5058162;28;20458;-61
2022/07/20 07:49:59;;;;;;;17.92;3.95;;;;;;;40.14;23.26;98004.78;5058279;28;20612;-61
2022/07/20 07:52:24;;;;;;;8.60;3.42;;;;;;;40.47;23.98;98007.38;5057393;28;20044;-61
2022/07/20 07:54:50;;;;;;;10.93;3.58;;;;;;;43.12;21.34;97997.44;5058401;28;20040;-61
2022/07/20 07:57:15;;;;;;;8.95;3.20;;;;;;;44.50;20.24;98013.81;5057652;28;20039;-63
2022/07/20 07:59:42;;;;;;;9.75;3.30;;;;;;;43.99;20.09;98009.41;5058362;28;20140;-61
2022/07/20 08:02:07;;;;;;;15.18;3.30;;;;;;;41.94;21.89;98005.31;5058031;28;20025;-63
2022/07/20 08:04:33;;;;;;;11.23;4.07;;;;;;;41.46;22.09;97999.00;5057946;28;20037;-62
2022/07/20 08:06:58;;;;;;;8.10;3.08;;;;;;;41.82;21.89;98007.47;5058344;28;20214;-62
2022/07/20 08:09:24;;;;;;;12.65;3.63;;;;;;;41.52;22.49;98003.41;5058044;28;20189;-61
2022/07/20 08:11:49;;;;;;;13.35;3.97;;;;;;;41.96;22.22;98002.31;5057797;28;20070;-63
2022/07/20 08:14:14;;;;;;;12.63;3.63;;;;;;;42.27;21.31;98006.00;5058633;28;20089;-62
2022/07/20 08:16:40;;;;;;;10.25;3.35;;;;;;;41.38;22.16;98000.31;5058214;28;20093;-61
2022/07/20 08:19:05;;;;;;;10.80;3.30;;;;;;;43.80;20.48;98006.41;5058543;28;20731;-62
2022/07/20 08:21:30;;;;;;;11.63;3.72;;;;;;;42.25;21.25;97994.50;5057276;28;20039;-61
2022/07/20 08:23:56;;;;;;;8.40;3.40;;;;;;;42.99;21.00;97997.97;5058435;28;20098;-63
2022/07/20 08:26:21;;;;;;;11.70;3.10;;;;;;;44.57;19.74;98001.44;5057988;28;21265;-62
2022/07/20 08:28:47;;;;;;;8.60;3.28;;;;;;;44.05;20.57;97997.25;5058392;28;21045;-62
2022/07/20 08:31:12;;;;;;;12.80;3.65;;;;;;;45.87;18.49;97996.50;5058339;28;20205;-62
2022/07/20 08:33:37;;;;;;;10.32;3.70;;;;;;;44.57;19.95;97998.69;5057922;28;20471;-63
2022/07/20 08:36:03;;;;;;;10.52;3.60;;;;;;;45.03;19.77;97995.59;5057813;28;20035;-62
2022/07/20 08:38:29;;;;;;;8.95;3.20;;;;;;;45.59;19.20;97996.22;5058736;28;20036;-62
2022/07/20 08:40:56;;;;;;;14.82;3.47;;;;;;;45.83;18.81;97984.44;5057496;28;20779;-62
2022/07/20 08:43:21;;;;;;;9.95;3.28;;;;;;;43.36;20.75;97999.63;5059105;28;20044;-62
2022/07/20 08:45:48;;;;;;;9.43;3.22;;;;;;;44.44;19.92;97989.09;5058489;28;20032;-63
2022/07/20 08:48:18;;;;;;;26.90;4.15;;;;;;;43.37;21.23;97993.03;5057796;28;20073;-61
2022/07/20 08:50:45;;;;;;;11.95;3.40;;;;;;;44.71;19.51;97993.38;5057032;28;20123;-63
2022/07/20 08:53:10;;;;;;;11.88;3.30;;;;;;;44.88;19.72;97981.97;5057740;28;20027;-61
2022/07/20 08:55:36;;;;;;;13.07;3.58;;;;;;;45.35;19.54;97986.00;5057663;28;20029;-61
2022/07/20 08:58:01;;;;;;;12.52;3.40;;;;;;;44.40;19.71;97984.47;5057891;28;20383;-61
2022/07/20 09:00:27;;;;;;;14.43;3.40;;;;;;;46.52;18.74;97979.41;5056841;28;20110;-61
2022/07/20 09:03:04;;;;;;;8.32;3.50;;;;;;;42.70;21.69;97972.97;5058772;28;20020;-61
2022/07/20 09:05:32;;;;;;;13.25;3.67;;;;;;;43.27;20.93;97976.53;5058171;28;20470;-61
2022/07/20 09:07:58;;;;;;;11.77;3.28;;;;;;;45.02;19.47;97982.97;5057958;28;20050;-61
2022/07/20 09:10:32;;;;;;;12.95;4.07;;;;;;;44.37;20.24;97980.34;5057584;28;20119;-61
2022/07/20 09:12:57;;;;;;;9.82;3.65;;;;;;;45.01;19.68;97973.06;5059449;28;20101;-63
2022/07/20 09:15:40;;;;;;;10.83;3.53;;;;;;;45.14;19.27;97968.00;5059886;28;20154;-62
2022/07/20 09:18:05;;;;;;;14.02;3.85;;;;;;;45.10;19.99;97972.47;5060922;28;20388;-61
2022/07/20 09:20:33;;;;;;;12.23;3.90;;;;;;;43.96;20.03;97971.47;5061895;28;20041;-60
2022/07/20 09:23:19;;;;;;;13.10;3.50;;;;;;;45.12;19.28;97975.75;5061473;28;21274;-61
2022/07/20 09:26:11;;;;;;;10.55;3.85;;;;;;;43.54;20.52;97967.19;5060916;28;20036;-62
2022/07/20 09:28:41;;;;;;;15.07;3.63;;;;;;;43.53;20.78;97968.28;5059686;28;20147;-61
2022/07/20 09:31:15;;;;;;;11.45;3.97;;;;;;;43.23;21.08;97964.47;5061118;28;20132;-61
2022/07/20 09:33:50;;;;;;;9.20;3.15;;;;;;;45.27;19.71;97966.50;5061362;28;20440;-61
2022/07/20 09:36:18;;;;;;;10.07;3.50;;;;;;;42.60;21.11;97968.28;5061604;28;20376;-61
2022/07/20 09:38:44;;;;;;;10.48;3.63;;;;;;;44.93;19.36;97948.94;5060923;28;20031;-61
2022/07/20 09:41:30;;;;;;;10.95;3.80;;;;;;;45.32;19.57;97963.75;5059622;28;20032;-61
2022/07/20 09:43:58;;;;;;;8.55;3.50;;;;;;;45.78;18.86;97949.47;5061209;28;20035;-61
2022/07/20 09:46:30;;;;;;;9.45;3.60;;;;;;;42.98;20.97;97952.44;5060656;28;20709;-61
2022/07/20 09:48:58;;;;;;;14.00;4.00;;;;;;;44.34;19.89;97950.69;5060727;28;20032;-62
2022/07/20 09:51:27;;;;;;;13.35;3.97;;;;;;;44.10;20.08;97945.03;5059768;28;20081;-62
2022/07/20 09:53:57;;;;;;;14.48;4.03;;;;;;;41.61;21.89;97941.59;5061985;28;20082;-62
2022/07/20 09:56:23;;;;;;;13.15;4.05;;;;;;;43.54;20.45;97946.03;5061035;28;20033;-61
2022/07/20 09:58:52;;;;;;;12.38;3.90;;;;;;;43.64;20.33;97942.47;5060850;28;20024;-60
2022/07/20 10:01:24;;;;;;;14.82;3.75;;;;;;;44.34;19.93;97947.13;5060364;28;20039;-62
2022/07/20 10:03:52;;;;;;;17.50;4.40;;;;;;;44.26;19.83;97938.38;5060540;28;20441;-61
2022/07/20 10:06:19;;;;;;;14.70;3.90;;;;;;;45.03;19.24;97939.75;5060656;28;20033;-62
2022/07/20 10:08:45;;;;;;;13.13;4.07;;;;;;;44.27;19.64;97934.50;5060129;28;20082;-61
2022/07/20 10:11:12;;;;;;;11.95;3.90;;;;;;;44.68;19.50;97929.84;5059189;28;20548;-63
2022/07/20 10:13:40;;;;;;;13.02;3.85;;;;;;;43.82;20.06;97933.63;5060685;28;20161;-63
2022/07/20 10:16:16;;;;;;;11.88;3.85;;;;;;;43.87;20.31;97936.34;5060328;28;20033;-61
2022/07/20 10:18:46;;;;;;;19.65;4.22;;;;;;;44.15;20.01;97925.78;5060033;28;20501;-62
2022/07/20 10:21:31;;;;;;;11.73;3.75;;;;;;;44.59;20.22;97929.66;5059656;28;20035;-64
2022/07/20 10:24:33;;;;;;;11.63;4.07;;;;;;;42.11;21.01;97922.97;5060999;28;20082;-61
2022/07/20 10:27:07;;;;;;;10.88;4.00;;;;;;;43.15;20.38;97929.38;5051881;28;20047;-64
2022/07/20 10:29:41;;;;;;;13.95;4.13;;;;;;;43.08;21.28;97924.97;5061601;28;20032;-64
2022/07/20 10:32:09;;;;;;;12.68;4.22;;;;;;;44.68;18.86;97933.41;5058967;28;20127;-62
2022/07/20 10:34:50;;;;;;;13.93;4.10;;;;;;;44.13;19.36;97928.00;5061008;28;20036;-64
2022/07/20 10:37:38;;;;;;;15.65;4.65;;;;;;;43.43;19.70;97936.19;5060397;28;21063;-62
2022/07/20 10:40:04;;;;;;;15.57;4.65;;;;;;;43.52;20.34;97934.53;5059915;28;20546;-62
2022/07/20 10:42:34;;;;;;;18.40;4.20;;;;;;;42.63;20.53;97921.16;5059329;28;20517;-61
2022/07/20 10:45:14;;;;;;;21.30;3.87;;;;;;;43.17;20.22;97922.50;5062222;28;20024;-62
2022/07/20 10:47:51;;;;;;;17.13;4.47;;;;;;;41.75;21.92;97919.25;5059038;28;20032;-61
2022/07/20 10:50:18;;;;;;;13.48;3.92;;;;;;;42.63;21.47;97907.44;5058458;28;20565;-63
2022/07/20 10:52:45;;;;;;;19.05;4.10;;;;;;;44.51;19.82;97906.34;5060176;28;20034;-65
2022/07/20 10:55:33;;;;;;;13.77;4.03;;;;;;;43.82;20.05;97903.41;5059972;28;20086;-62
2022/07/20 10:58:16;;;;;;;18.73;4.78;;;;;;;44.46;19.57;97904.41;5059176;28;20465;-62
2022/07/20 11:00:50;;;;;;;14.98;4.00;;;;;;;43.27;20.03;97911.50;5059330;28;20040;-64
2022/07/20 11:03:15;;;;;;;14.98;3.92;;;;;;;44.81;19.51;97907.19;5060603;28;20024;-62
2022/07/20 11:05:42;;;;;;;9.63;3.73;;;;;;;42.77;20.10;97902.22;5060338;28;20043;-63
2022/07/20 11:08:09;;;;;;;14.57;4.10;;;;;;;41.45;22.11;97887.88;5061427;28;20028;-62
2022/07/20 11:10:35;;;;;;;11.10;3.85;;;;;;;42.56;20.99;97898.66;5058896;28;20337;-63
2022/07/20 11:13:03;;;;;;;14.63;4.30;;;;;;;41.82;21.46;97892.44;5059083;28;20553;-64
2022/07/20 11:15:49;;;;;;;10.82;3.67;;;;;;;42.01;21.41;97895.50;5059597;28;20237;-61
2022/07/20 11:18:22;;;;;;;20.83;4.80;;;;;;;42.77;21.14;97885.75;5059418;28;20111;-61
2022/07/20 11:20:49;;;;;;;13.25;4.15;;;;;;;43.56;20.25;97882.63;5058479;28;20655;-61
2022/07/20 11:23:16;;;;;;;15.05;4.47;;;;;;;42.68;20.46;97882.75;5059190;28;20071;-61